sensor_id;sensor_type;location;lat;lon;timestamp;pressure;altitude;pressure_sealevel;temperature;humidity
68141;BME280;54941;52.220;104.306;2024-02-23T00:00:37;98490.84;;;-26.88;66.40
68141;BME280;54941;52.220;104.306;2024-02-23T00:03:03;98496.38;;;-26.69;65.31
68141;BME280;54941;52.220;104.306;2024-02-23T00:05:29;98497.03;;;-26.70;64.92
68141;BME280;54941;52.220;104.306;2024-02-23T00:07:57;98506.00;;;-26.87;63.85
68141;BME280;54941;52.220;104.306;2024-02-23T00:10:23;98510.03;;;-26.99;63.63
68141;BME280;54941;52.220;104.306;2024-02-23T00:12:50;98517.22;;;-27.17;63.50
68141;BME280;54941;52.220;104.306;2024-02-23T00:15:16;98509.78;;;-27.11;64.01
68141;BME280;54941;52.220;104.306;2024-02-23T00:17:42;98502.59;;;-26.93;64.73
68141;BME280;54941;52.220;104.306;2024-02-23T00:20:09;98511.69;;;-26.77;64.42
68141;BME280;54941;52.220;104.306;2024-02-23T00:22:36;98518.38;;;-26.98;63.46
68141;BME280;54941;52.220;104.306;2024-02-23T00:25:04;98518.88;;;-26.95;63.63
68141;BME280;54941;52.220;104.306;2024-02-23T00:27:30;98512.78;;;-26.92;64.67
68141;BME280;54941;52.220;104.306;2024-02-23T00:29:57;98524.84;;;-26.72;64.35
68141;BME280;54941;52.220;104.306;2024-02-23T00:32:23;98520.34;;;-26.64;64.16
68141;BME280;54941;52.220;104.306;2024-02-23T00:34:49;98519.88;;;-26.67;63.90
68141;BME280;54941;52.220;104.306;2024-02-23T00:37:15;98529.63;;;-26.51;64.11
68141;BME280;54941;52.220;104.306;2024-02-23T00:39:42;98525.13;;;-26.59;64.42
68141;BME280;54941;52.220;104.306;2024-02-23T00:42:09;98518.59;;;-26.20;64.42
68141;BME280;54941;52.220;104.306;2024-02-23T00:44:36;98519.75;;;-26.07;63.91
68141;BME280;54941;52.220;104.306;2024-02-23T00:47:02;98519.75;;;-26.23;63.36
68141;BME280;54941;52.220;104.306;2024-02-23T00:49:28;98527.47;;;-25.99;63.34
68141;BME280;54941;52.220;104.306;2024-02-23T00:51:55;98522.94;;;-25.85;62.29
68141;BME280;54941;52.220;104.306;2024-02-23T00:54:21;98526.13;;;-25.75;62.19
68141;BME280;54941;52.220;104.306;2024-02-23T00:56:47;98530.59;;;-25.50;62.30
68141;BME280;54941;52.220;104.306;2024-02-23T00:59:15;98526.50;;;-25.38;62.37
68141;BME280;54941;52.220;104.306;2024-02-23T01:01:41;98529.25;;;-25.42;62.09
68141;BME280;54941;52.220;104.306;2024-02-23T01:04:08;98518.53;;;-25.14;61.30
68141;BME280;54941;52.220;104.306;2024-02-23T01:06:34;98525.75;;;-25.04;61.34
68141;BME280;54941;52.220;104.306;2024-02-23T01:09:00;98526.44;;;-25.05;61.71
68141;BME280;54941;52.220;104.306;2024-02-23T01:11:26;98528.13;;;-24.70;61.66
68141;BME280;54941;52.220;104.306;2024-02-23T01:13:53;98532.50;;;-24.92;62.18
68141;BME280;54941;52.220;104.306;2024-02-23T01:16:21;98531.00;;;-24.56;61.78
68141;BME280;54941;52.220;104.306;2024-02-23T01:18:47;98536.47;;;-24.59;61.88
68141;BME280;54941;52.220;104.306;2024-02-23T01:21:14;98531.16;;;-24.38;61.58
68141;BME280;54941;52.220;104.306;2024-02-23T01:23:40;98530.72;;;-24.41;61.87
68141;BME280;54941;52.220;104.306;2024-02-23T01:26:06;98534.41;;;-24.15;60.93
68141;BME280;54941;52.220;104.306;2024-02-23T01:28:32;98526.88;;;-24.09;60.44
68141;BME280;54941;52.220;104.306;2024-02-23T01:30:59;98527.97;;;-24.37;60.40
68141;BME280;54941;52.220;104.306;2024-02-23T01:33:26;98539.13;;;-24.11;59.91
68141;BME280;54941;52.220;104.306;2024-02-23T01:35:53;98534.13;;;-24.11;59.88
68141;BME280;54941;52.220;104.306;2024-02-23T01:38:19;98534.31;;;-24.33;59.15
68141;BME280;54941;52.220;104.306;2024-02-23T01:40:45;98534.91;;;-23.88;59.80
68141;BME280;54941;52.220;104.306;2024-02-23T01:43:12;98530.09;;;-23.57;58.17
68141;BME280;54941;52.220;104.306;2024-02-23T01:45:40;98536.44;;;-23.06;56.50
68141;BME280;54941;52.220;104.306;2024-02-23T01:48:07;98529.22;;;-22.31;56.01
68141;BME280;54941;52.220;104.306;2024-02-23T01:50:35;98532.91;;;-22.53;54.91
68141;BME280;54941;52.220;104.306;2024-02-23T01:53:02;98521.34;;;-22.39;54.72
68141;BME280;54941;52.220;104.306;2024-02-23T01:55:30;98526.47;;;-22.69;54.68
68141;BME280;54941;52.220;104.306;2024-02-23T01:57:57;98532.75;;;-22.41;54.62
68141;BME280;54941;52.220;104.306;2024-02-23T02:00:23;98533.59;;;-22.35;54.84
68141;BME280;54941;52.220;104.306;2024-02-23T02:02:50;98521.88;;;-21.67;53.92
68141;BME280;54941;52.220;104.306;2024-02-23T02:05:16;98530.59;;;-21.40;53.06
68141;BME280;54941;52.220;104.306;2024-02-23T02:07:45;98521.28;;;-21.28;52.10
68141;BME280;54941;52.220;104.306;2024-02-23T02:10:17;98526.75;;;-21.43;52.32
68141;BME280;54941;52.220;104.306;2024-02-23T02:12:44;98523.94;;;-20.63;50.33
68141;BME280;54941;52.220;104.306;2024-02-23T02:15:10;98523.75;;;-20.90;51.39
68141;BME280;54941;52.220;104.306;2024-02-23T02:17:37;98520.91;;;-20.28;49.92
68141;BME280;54941;52.220;104.306;2024-02-23T02:20:04;98516.91;;;-20.65;49.88
68141;BME280;54941;52.220;104.306;2024-02-23T02:22:32;98515.78;;;-20.02;49.60
68141;BME280;54941;52.220;104.306;2024-02-23T02:25:00;98509.47;;;-20.39;49.13
68141;BME280;54941;52.220;104.306;2024-02-23T02:27:35;98514.78;;;-20.30;49.65
68141;BME280;54941;52.220;104.306;2024-02-23T02:30:01;98522.56;;;-20.09;49.39
68141;BME280;54941;52.220;104.306;2024-02-23T02:32:29;98500.34;;;-19.12;48.02
68141;BME280;54941;52.220;104.306;2024-02-23T02:34:55;98488.03;;;-18.62;47.52
68141;BME280;54941;52.220;104.306;2024-02-23T02:37:21;98501.75;;;-19.21;46.44
68141;BME280;54941;52.220;104.306;2024-02-23T02:39:47;98499.84;;;-19.09;46.13
68141;BME280;54941;52.220;104.306;2024-02-23T02:42:15;98497.75;;;-18.17;45.04
68141;BME280;54941;52.220;104.306;2024-02-23T02:44:42;98489.56;;;-19.11;45.87
68141;BME280;54941;52.220;104.306;2024-02-23T02:47:08;98490.03;;;-17.97;44.08
68141;BME280;54941;52.220;104.306;2024-02-23T02:49:34;98490.75;;;-18.53;44.49
68141;BME280;54941;52.220;104.306;2024-02-23T02:52:00;98486.59;;;-18.53;44.93
68141;BME280;54941;52.220;104.306;2024-02-23T02:54:27;98488.97;;;-18.47;45.81
68141;BME280;54941;52.220;104.306;2024-02-23T02:56:53;98490.03;;;-17.61;44.46
68141;BME280;54941;52.220;104.306;2024-02-23T02:59:21;98486.09;;;-17.88;44.72
68141;BME280;54941;52.220;104.306;2024-02-23T03:01:47;98471.28;;;-17.49;44.50
68141;BME280;54941;52.220;104.306;2024-02-23T03:04:13;98475.63;;;-17.48;44.09
68141;BME280;54941;52.220;104.306;2024-02-23T03:06:40;98476.31;;;-18.13;45.63
68141;BME280;54941;52.220;104.306;2024-02-23T03:09:06;98476.53;;;-17.90;45.16
68141;BME280;54941;52.220;104.306;2024-02-23T03:11:32;98469.22;;;-16.81;43.41
68141;BME280;54941;52.220;104.306;2024-02-23T03:13:58;98462.97;;;-16.98;43.22
68141;BME280;54941;52.220;104.306;2024-02-23T03:16:26;98465.50;;;-17.48;44.45
68141;BME280;54941;52.220;104.306;2024-02-23T03:18:53;98455.78;;;-15.91;42.52
68141;BME280;54941;52.220;104.306;2024-02-23T03:21:19;98464.66;;;-16.69;43.05
68141;BME280;54941;52.220;104.306;2024-02-23T03:23:45;98462.44;;;-16.52;43.49
68141;BME280;54941;52.220;104.306;2024-02-23T03:26:11;98448.88;;;-16.52;42.93
68141;BME280;54941;52.220;104.306;2024-02-23T03:28:38;98449.94;;;-16.87;42.96
68141;BME280;54941;52.220;104.306;2024-02-23T03:31:04;98451.09;;;-16.62;43.82
68141;BME280;54941;52.220;104.306;2024-02-23T03:33:32;98449.38;;;-16.47;43.26
68141;BME280;54941;52.220;104.306;2024-02-23T03:35:58;98435.06;;;-16.03;42.96
68141;BME280;54941;52.220;104.306;2024-02-23T03:38:24;98443.47;;;-16.18;43.13
68141;BME280;54941;52.220;104.306;2024-02-23T03:40:51;98429.56;;;-15.46;42.11
68141;BME280;54941;52.220;104.306;2024-02-23T03:43:17;98436.81;;;-16.25;43.16
68141;BME280;54941;52.220;104.306;2024-02-23T03:45:43;98435.81;;;-16.04;43.63
68141;BME280;54941;52.220;104.306;2024-02-23T03:48:09;98428.84;;;-15.90;43.41
68141;BME280;54941;52.220;104.306;2024-02-23T03:50:37;98423.31;;;-15.18;41.93
68141;BME280;54941;52.220;104.306;2024-02-23T03:53:04;98424.78;;;-15.20;42.19
68141;BME280;54941;52.220;104.306;2024-02-23T03:55:30;98411.94;;;-14.67;40.84
68141;BME280;54941;52.220;104.306;2024-02-23T03:57:56;98411.84;;;-14.76;40.35
68141;BME280;54941;52.220;104.306;2024-02-23T04:00:25;98411.91;;;-14.51;40.33
68141;BME280;54941;52.220;104.306;2024-02-23T04:02:51;98404.00;;;-13.57;39.17
68141;BME280;54941;52.220;104.306;2024-02-23T04:05:18;98409.03;;;-14.14;39.09
68141;BME280;54941;52.220;104.306;2024-02-23T04:07:46;98406.69;;;-13.55;39.42
68141;BME280;54941;52.220;104.306;2024-02-23T04:10:12;98398.25;;;-13.71;39.79
68141;BME280;54941;52.220;104.306;2024-02-23T04:12:38;98406.41;;;-13.82;39.81
68141;BME280;54941;52.220;104.306;2024-02-23T04:15:05;98406.84;;;-13.20;38.88
68141;BME280;54941;52.220;104.306;2024-02-23T04:17:31;98406.50;;;-13.32;40.11
68141;BME280;54941;52.220;104.306;2024-02-23T04:19:59;98400.13;;;-13.03;39.58
68141;BME280;54941;52.220;104.306;2024-02-23T04:22:26;98396.75;;;-12.77;39.17
68141;BME280;54941;52.220;104.306;2024-02-23T04:24:54;98397.97;;;-12.65;38.62
68141;BME280;54941;52.220;104.306;2024-02-23T04:27:20;98387.97;;;-12.46;39.13
68141;BME280;54941;52.220;104.306;2024-02-23T04:29:46;98382.75;;;-11.68;36.69
68141;BME280;54941;52.220;104.306;2024-02-23T04:32:13;98392.38;;;-12.96;38.67
68141;BME280;54941;52.220;104.306;2024-02-23T04:34:39;98390.78;;;-12.69;38.43
68141;BME280;54941;52.220;104.306;2024-02-23T04:37:05;98393.22;;;-13.30;40.52
68141;BME280;54941;52.220;104.306;2024-02-23T04:39:32;98386.63;;;-12.34;38.92
68141;BME280;54941;52.220;104.306;2024-02-23T04:41:59;98388.38;;;-12.68;39.62
68141;BME280;54941;52.220;104.306;2024-02-23T04:44:26;98386.94;;;-13.58;41.37
68141;BME280;54941;52.220;104.306;2024-02-23T04:46:52;98383.50;;;-13.25;41.04
68141;BME280;54941;52.220;104.306;2024-02-23T04:49:18;98378.66;;;-13.72;42.03
68141;BME280;54941;52.220;104.306;2024-02-23T04:51:44;98374.19;;;-13.99;42.45
68141;BME280;54941;52.220;104.306;2024-02-23T04:54:11;98377.72;;;-14.06;42.14
68141;BME280;54941;52.220;104.306;2024-02-23T04:56:37;98375.41;;;-13.30;42.75
68141;BME280;54941;52.220;104.306;2024-02-23T04:59:05;98369.78;;;-13.18;41.51
68141;BME280;54941;52.220;104.306;2024-02-23T05:01:35;98358.75;;;-12.24;39.56
68141;BME280;54941;52.220;104.306;2024-02-23T05:04:02;98361.75;;;-12.54;40.31
68141;BME280;54941;52.220;104.306;2024-02-23T05:06:28;98353.34;;;-12.18;38.50
68141;BME280;54941;52.220;104.306;2024-02-23T05:08:54;98348.69;;;-12.22;38.92
68141;BME280;54941;52.220;104.306;2024-02-23T05:11:20;98355.75;;;-12.80;38.83
68141;BME280;54941;52.220;104.306;2024-02-23T05:13:47;98342.38;;;-12.00;38.50
68141;BME280;54941;52.220;104.306;2024-02-23T05:16:15;98349.47;;;-12.84;38.97
68141;BME280;54941;52.220;104.306;2024-02-23T05:18:42;98341.53;;;-12.35;39.31
68141;BME280;54941;52.220;104.306;2024-02-23T05:21:08;98331.78;;;-12.39;39.25
68141;BME280;54941;52.220;104.306;2024-02-23T05:23:34;98337.47;;;-12.50;39.66
68141;BME280;54941;52.220;104.306;2024-02-23T05:26:00;98348.19;;;-13.22;42.11
68141;BME280;54941;52.220;104.306;2024-02-23T05:28:27;98335.97;;;-12.66;39.83
68141;BME280;54941;52.220;104.306;2024-02-23T05:30:54;98328.22;;;-12.84;40.78
68141;BME280;54941;52.220;104.306;2024-02-23T05:33:22;98332.06;;;-12.88;40.92
68141;BME280;54941;52.220;104.306;2024-02-23T05:35:49;98328.03;;;-13.03;41.45
68141;BME280;54941;52.220;104.306;2024-02-23T05:38:15;98325.06;;;-12.56;41.37
68141;BME280;54941;52.220;104.306;2024-02-23T05:40:42;98317.44;;;-12.73;40.92
68141;BME280;54941;52.220;104.306;2024-02-23T05:43:08;98320.97;;;-13.23;43.23
68141;BME280;54941;52.220;104.306;2024-02-23T05:45:34;98317.44;;;-12.73;42.62
68141;BME280;54941;52.220;104.306;2024-02-23T05:48:02;98309.56;;;-12.05;40.94
68141;BME280;54941;52.220;104.306;2024-02-23T05:50:30;98311.19;;;-12.06;40.30
68141;BME280;54941;52.220;104.306;2024-02-23T05:52:56;98309.31;;;-12.26;41.91
68141;BME280;54941;52.220;104.306;2024-02-23T05:55:22;98308.72;;;-12.41;42.78
68141;BME280;54941;52.220;104.306;2024-02-23T05:57:48;98302.59;;;-12.43;42.31
68141;BME280;54941;52.220;104.306;2024-02-23T06:00:15;98298.44;;;-11.89;41.76
68141;BME280;54941;52.220;104.306;2024-02-23T06:02:42;98293.69;;;-12.03;41.30
68141;BME280;54941;52.220;104.306;2024-02-23T06:05:08;98290.41;;;-12.19;41.53
68141;BME280;54941;52.220;104.306;2024-02-23T06:07:36;98294.22;;;-13.19;42.55
68141;BME280;54941;52.220;104.306;2024-02-23T06:10:05;98294.97;;;-12.77;43.49
68141;BME280;54941;52.220;104.306;2024-02-23T06:12:31;98285.38;;;-12.80;44.01
68141;BME280;54941;52.220;104.306;2024-02-23T06:14:57;98290.19;;;-12.57;51.82
68141;BME280;54941;52.220;104.306;2024-02-23T06:17:24;98274.72;;;-11.05;54.39
68141;BME280;54941;52.220;104.306;2024-02-23T06:19:50;98273.16;;;-11.77;44.88
68141;BME280;54941;52.220;104.306;2024-02-23T06:22:17;98275.78;;;-13.00;45.14
68141;BME280;54941;52.220;104.306;2024-02-23T06:24:44;98291.50;;;-13.38;45.42
68141;BME280;54941;52.220;104.306;2024-02-23T06:27:11;98279.84;;;-13.02;45.90
68141;BME280;54941;52.220;104.306;2024-02-23T06:29:37;98269.97;;;-12.64;45.34
68141;BME280;54941;52.220;104.306;2024-02-23T06:32:04;98273.41;;;-13.07;45.04
68141;BME280;54941;52.220;104.306;2024-02-23T06:34:30;98276.69;;;-13.34;46.04
68141;BME280;54941;52.220;104.306;2024-02-23T06:36:56;98284.13;;;-13.44;46.50
68141;BME280;54941;52.220;104.306;2024-02-23T06:39:23;98273.13;;;-12.84;45.65
68141;BME280;54941;52.220;104.306;2024-02-23T06:41:50;98260.25;;;-12.68;44.85
68141;BME280;54941;52.220;104.306;2024-02-23T06:44:17;98267.72;;;-13.21;46.21
68141;BME280;54941;52.220;104.306;2024-02-23T06:46:43;98262.63;;;-13.13;46.03
68141;BME280;54941;52.220;104.306;2024-02-23T06:49:09;98265.78;;;-13.83;47.71
68141;BME280;54941;52.220;104.306;2024-02-23T06:51:36;98260.38;;;-13.95;48.59
68141;BME280;54941;52.220;104.306;2024-02-23T06:54:02;98265.38;;;-13.70;47.93
68141;BME280;54941;52.220;104.306;2024-02-23T06:56:28;98259.50;;;-13.36;46.93
68141;BME280;54941;52.220;104.306;2024-02-23T06:58:56;98250.06;;;-13.37;47.32
68141;BME280;54941;52.220;104.306;2024-02-23T07:01:22;98249.91;;;-12.78;46.91
68141;BME280;54941;52.220;104.306;2024-02-23T07:03:50;98246.78;;;-12.84;46.77
68141;BME280;54941;52.220;104.306;2024-02-23T07:06:16;98251.41;;;-13.15;47.79
68141;BME280;54941;52.220;104.306;2024-02-23T07:08:43;98238.88;;;-13.22;47.83
68141;BME280;54941;52.220;104.306;2024-02-23T07:11:09;98245.75;;;-12.95;47.27
68141;BME280;54941;52.220;104.306;2024-02-23T07:13:35;98248.47;;;-13.87;48.62
68141;BME280;54941;52.220;104.306;2024-02-23T07:16:04;98244.75;;;-14.15;49.20
68141;BME280;54941;52.220;104.306;2024-02-23T07:18:30;98253.16;;;-14.07;49.19
68141;BME280;54941;52.220;104.306;2024-02-23T07:20:57;98246.03;;;-13.94;49.25
68141;BME280;54941;52.220;104.306;2024-02-23T07:23:23;98246.31;;;-13.49;48.43
68141;BME280;54941;52.220;104.306;2024-02-23T07:25:49;98261.47;;;-13.84;48.87
68141;BME280;54941;52.220;104.306;2024-02-23T07:28:15;98255.97;;;-13.71;48.44
68141;BME280;54941;52.220;104.306;2024-02-23T07:30:42;98256.41;;;-13.75;49.14
68141;BME280;54941;52.220;104.306;2024-02-23T07:33:09;98265.31;;;-13.96;48.61
68141;BME280;54941;52.220;104.306;2024-02-23T07:35:36;98250.53;;;-13.41;48.00
68141;BME280;54941;52.220;104.306;2024-02-23T07:38:02;98259.16;;;-13.48;48.37
68141;BME280;54941;52.220;104.306;2024-02-23T07:40:28;98252.34;;;-13.82;48.27
68141;BME280;54941;52.220;104.306;2024-02-23T07:42:55;98248.88;;;-13.91;49.23
68141;BME280;54941;52.220;104.306;2024-02-23T07:45:21;98237.38;;;-13.29;47.77
68141;BME280;54941;52.220;104.306;2024-02-23T07:47:47;98239.31;;;-13.26;47.84
68141;BME280;54941;52.220;104.306;2024-02-23T07:50:15;98234.94;;;-13.53;48.77
68141;BME280;54941;52.220;104.306;2024-02-23T07:52:41;98240.50;;;-13.99;49.73
68141;BME280;54941;52.220;104.306;2024-02-23T07:55:08;98239.03;;;-13.88;49.71
68141;BME280;54941;52.220;104.306;2024-02-23T07:57:35;98240.81;;;-13.96;50.34
68141;BME280;54941;52.220;104.306;2024-02-23T08:00:01;98238.59;;;-13.84;50.15
68141;BME280;54941;52.220;104.306;2024-02-23T08:02:29;98238.25;;;-13.54;49.81
68141;BME280;54941;52.220;104.306;2024-02-23T08:04:55;98229.84;;;-13.62;49.16
68141;BME280;54941;52.220;104.306;2024-02-23T08:07:23;98218.94;;;-13.43;48.90
68141;BME280;54941;52.220;104.306;2024-02-23T08:09:49;98228.19;;;-13.61;49.70
68141;BME280;54941;52.220;104.306;2024-02-23T08:12:16;98225.59;;;-13.87;49.53
68141;BME280;54941;52.220;104.306;2024-02-23T08:14:42;98226.78;;;-13.83;49.87
68141;BME280;54941;52.220;104.306;2024-02-23T08:17:08;98232.09;;;-13.47;49.56
68141;BME280;54941;52.220;104.306;2024-02-23T08:19:35;98233.78;;;-13.90;49.57
68141;BME280;54941;52.220;104.306;2024-02-23T08:22:01;98234.34;;;-14.01;50.42
68141;BME280;54941;52.220;104.306;2024-02-23T08:24:29;98234.19;;;-14.02;50.59
68141;BME280;54941;52.220;104.306;2024-02-23T08:26:55;98226.94;;;-13.82;50.05
68141;BME280;54941;52.220;104.306;2024-02-23T08:29:22;98228.16;;;-13.70;48.98
68141;BME280;54941;52.220;104.306;2024-02-23T08:31:48;98229.94;;;-13.86;49.62
68141;BME280;54941;52.220;104.306;2024-02-23T08:34:15;98228.28;;;-13.86;50.21
68141;BME280;54941;52.220;104.306;2024-02-23T08:36:41;98224.25;;;-13.83;50.80
68141;BME280;54941;52.220;104.306;2024-02-23T08:39:07;98222.91;;;-13.80;49.21
68141;BME280;54941;52.220;104.306;2024-02-23T08:41:35;98226.34;;;-13.88;49.65
68141;BME280;54941;52.220;104.306;2024-02-23T08:44:02;98227.31;;;-14.03;49.99
68141;BME280;54941;52.220;104.306;2024-02-23T08:46:28;98224.84;;;-13.86;49.95
68141;BME280;54941;52.220;104.306;2024-02-23T08:48:54;98222.56;;;-14.00;50.49
68141;BME280;54941;52.220;104.306;2024-02-23T08:51:21;98216.94;;;-13.80;49.93
68141;BME280;54941;52.220;104.306;2024-02-23T08:53:47;98212.09;;;-13.53;49.64
68141;BME280;54941;52.220;104.306;2024-02-23T08:56:14;98209.97;;;-13.66;49.41
68141;BME280;54941;52.220;104.306;2024-02-23T08:58:41;98211.94;;;-13.37;48.99
68141;BME280;54941;52.220;104.306;2024-02-23T09:01:08;98203.56;;;-13.36;49.03
68141;BME280;54941;52.220;104.306;2024-02-23T09:03:34;98199.66;;;-13.33;48.80
68141;BME280;54941;52.220;104.306;2024-02-23T09:06:04;98206.97;;;-13.62;49.76
68141;BME280;54941;52.220;104.306;2024-02-23T09:08:30;98202.00;;;-13.86;50.33
68141;BME280;54941;52.220;104.306;2024-02-23T09:10:57;98207.22;;;-13.85;50.70
68141;BME280;54941;52.220;104.306;2024-02-23T09:13:23;98200.53;;;-13.58;49.53
68141;BME280;54941;52.220;104.306;2024-02-23T09:15:51;98197.94;;;-13.84;50.63
68141;BME280;54941;52.220;104.306;2024-02-23T09:18:17;98195.44;;;-13.67;49.98
68141;BME280;54941;52.220;104.306;2024-02-23T09:20:44;98197.69;;;-13.70;50.57
68141;BME280;54941;52.220;104.306;2024-02-23T09:23:10;98207.06;;;-13.86;50.31
68141;BME280;54941;52.220;104.306;2024-02-23T09:25:36;98204.69;;;-13.85;50.74
68141;BME280;54941;52.220;104.306;2024-02-23T09:28:03;98204.59;;;-14.10;51.50
68141;BME280;54941;52.220;104.306;2024-02-23T09:30:30;98209.69;;;-14.02;50.74
68141;BME280;54941;52.220;104.306;2024-02-23T09:32:57;98204.81;;;-14.33;51.37
68141;BME280;54941;52.220;104.306;2024-02-23T09:35:24;98208.50;;;-14.38;52.16
68141;BME280;54941;52.220;104.306;2024-02-23T09:37:50;98203.03;;;-14.26;51.34
68141;BME280;54941;52.220;104.306;2024-02-23T09:40:17;98209.44;;;-14.29;51.45
68141;BME280;54941;52.220;104.306;2024-02-23T09:42:43;98200.34;;;-13.86;50.08
68141;BME280;54941;52.220;104.306;2024-02-23T09:45:15;98196.91;;;-14.28;50.63
68141;BME280;54941;52.220;104.306;2024-02-23T09:47:43;98205.28;;;-14.62;51.71
68141;BME280;54941;52.220;104.306;2024-02-23T09:50:12;98205.22;;;-14.37;51.80
68141;BME280;54941;52.220;104.306;2024-02-23T09:52:40;98200.88;;;-14.47;51.79
68141;BME280;54941;52.220;104.306;2024-02-23T09:55:07;98206.38;;;-14.51;51.92
68141;BME280;54941;52.220;104.306;2024-02-23T09:57:33;98202.34;;;-14.58;51.92
68141;BME280;54941;52.220;104.306;2024-02-23T10:00:00;98196.03;;;-14.86;52.69
68141;BME280;54941;52.220;104.306;2024-02-23T10:02:27;98195.25;;;-14.69;52.56
68141;BME280;54941;52.220;104.306;2024-02-23T10:04:56;98198.50;;;-14.70;52.12
68141;BME280;54941;52.220;104.306;2024-02-23T10:07:24;98192.22;;;-14.74;52.01
68141;BME280;54941;52.220;104.306;2024-02-23T10:09:51;98193.78;;;-14.91;52.31
68141;BME280;54941;52.220;104.306;2024-02-23T10:12:18;98195.59;;;-15.06;53.14
68141;BME280;54941;52.220;104.306;2024-02-23T10:14:45;98194.53;;;-15.08;53.15
68141;BME280;54941;52.220;104.306;2024-02-23T10:17:11;98191.03;;;-15.01;53.10
68141;BME280;54941;52.220;104.306;2024-02-23T10:19:37;98183.19;;;-15.12;53.16
68141;BME280;54941;52.220;104.306;2024-02-23T10:22:04;98202.72;;;-15.11;53.27
68141;BME280;54941;52.220;104.306;2024-02-23T10:24:32;98198.13;;;-15.06;53.42
68141;BME280;54941;52.220;104.306;2024-02-23T10:27:00;98199.16;;;-15.28;53.17
68141;BME280;54941;52.220;104.306;2024-02-23T10:29:26;98199.03;;;-15.06;53.07
68141;BME280;54941;52.220;104.306;2024-02-23T10:31:57;98203.97;;;-15.23;53.40
68141;BME280;54941;52.220;104.306;2024-02-23T10:34:24;98214.34;;;-15.69;53.77
68141;BME280;54941;52.220;104.306;2024-02-23T10:36:53;98213.91;;;-15.96;54.76
68141;BME280;54941;52.220;104.306;2024-02-23T10:39:22;98209.25;;;-16.23;55.24
68141;BME280;54941;52.220;104.306;2024-02-23T10:41:56;98213.09;;;-16.27;55.88
68141;BME280;54941;52.220;104.306;2024-02-23T10:44:24;98213.69;;;-16.52;56.33
68141;BME280;54941;52.220;104.306;2024-02-23T10:46:51;98215.09;;;-16.70;56.83
68141;BME280;54941;52.220;104.306;2024-02-23T10:49:19;98218.91;;;-16.96;57.22
68141;BME280;54941;52.220;104.306;2024-02-23T10:51:46;98221.09;;;-16.99;57.41
68141;BME280;54941;52.220;104.306;2024-02-23T10:54:13;98221.16;;;-17.14;57.38
68141;BME280;54941;52.220;104.306;2024-02-23T10:56:40;98233.50;;;-17.24;57.85
68141;BME280;54941;52.220;104.306;2024-02-23T10:59:09;98236.03;;;-17.31;57.92
68141;BME280;54941;52.220;104.306;2024-02-23T11:01:35;98246.88;;;-17.32;57.87
68141;BME280;54941;52.220;104.306;2024-02-23T11:04:03;98253.41;;;-17.48;58.08
68141;BME280;54941;52.220;104.306;2024-02-23T11:06:29;98251.53;;;-17.72;58.62
68141;BME280;54941;52.220;104.306;2024-02-23T11:09:05;98254.34;;;-17.55;58.64
68141;BME280;54941;52.220;104.306;2024-02-23T11:11:32;98262.03;;;-17.83;59.24
68141;BME280;54941;52.220;104.306;2024-02-23T11:13:58;98264.03;;;-17.88;59.45
68141;BME280;54941;52.220;104.306;2024-02-23T11:16:31;98263.31;;;-17.80;59.44
68141;BME280;54941;52.220;104.306;2024-02-23T11:19:04;98268.72;;;-17.91;59.59
68141;BME280;54941;52.220;104.306;2024-02-23T11:21:34;98267.66;;;-18.07;59.68
68141;BME280;54941;52.220;104.306;2024-02-23T11:24:03;98266.25;;;-18.26;60.38
68141;BME280;54941;52.220;104.306;2024-02-23T11:26:30;98271.84;;;-18.36;60.42
68141;BME280;54941;52.220;104.306;2024-02-23T11:28:56;98279.19;;;-18.45;60.57
68141;BME280;54941;52.220;104.306;2024-02-23T11:31:24;98277.03;;;-18.42;60.93
68141;BME280;54941;52.220;104.306;2024-02-23T11:33:53;98275.75;;;-18.52;60.90
68141;BME280;54941;52.220;104.306;2024-02-23T11:36:23;98290.38;;;-18.71;61.34
68141;BME280;54941;52.220;104.306;2024-02-23T11:38:52;98288.56;;;-18.79;61.52
68141;BME280;54941;52.220;104.306;2024-02-23T11:41:20;98287.13;;;-18.77;61.71
68141;BME280;54941;52.220;104.306;2024-02-23T11:43:47;98281.72;;;-18.66;62.10
68141;BME280;54941;52.220;104.306;2024-02-23T11:46:15;98287.84;;;-18.71;62.13
68141;BME280;54941;52.220;104.306;2024-02-23T11:48:41;98284.78;;;-18.76;61.96
68141;BME280;54941;52.220;104.306;2024-02-23T11:51:09;98287.25;;;-18.90;62.25
68141;BME280;54941;52.220;104.306;2024-02-23T11:53:39;98289.41;;;-19.07;62.54
68141;BME280;54941;52.220;104.306;2024-02-23T11:56:06;98291.00;;;-19.08;62.44
68141;BME280;54941;52.220;104.306;2024-02-23T11:58:32;98299.88;;;-18.97;62.67
68141;BME280;54941;52.220;104.306;2024-02-23T12:01:01;98305.19;;;-19.15;63.09
68141;BME280;54941;52.220;104.306;2024-02-23T12:03:27;98310.41;;;-19.21;63.28
68141;BME280;54941;52.220;104.306;2024-02-23T12:05:54;98305.88;;;-19.24;62.46
68141;BME280;54941;52.220;104.306;2024-02-23T12:08:22;98314.00;;;-19.19;62.93
68141;BME280;54941;52.220;104.306;2024-02-23T12:10:49;98315.22;;;-19.23;63.51
68141;BME280;54941;52.220;104.306;2024-02-23T12:13:15;98308.38;;;-19.31;63.99
68141;BME280;54941;52.220;104.306;2024-02-23T12:15:41;98316.47;;;-19.26;63.93
68141;BME280;54941;52.220;104.306;2024-02-23T12:18:10;98318.47;;;-19.24;63.73
68141;BME280;54941;52.220;104.306;2024-02-23T12:20:37;98316.88;;;-19.16;63.41
68141;BME280;54941;52.220;104.306;2024-02-23T12:23:03;98322.09;;;-19.14;63.16
68141;BME280;54941;52.220;104.306;2024-02-23T12:25:31;98329.09;;;-19.19;62.71
68141;BME280;54941;52.220;104.306;2024-02-23T12:27:57;98329.81;;;-19.20;62.83